Terminal Aerodrome Forecast
Issued by NWS Springfield, MO

Home | Current Version | Previous Version | Text Only | Print | Product List | Glossary On
Versions: 1 2 3 4 5 6 7 8 9 10 11 12 13 14 15 16
682
FTUS43 KSGF 221916 CCA
TAFSGF
TAF COR
KSGF 221916Z 2218/2318 35008KT P6SM SCT040
     FM222100 08010KT P6SM SCT040 SCT250
     FM230000 16005KT P6SM FEW250=

USA.gov is the U.S. government's official web portal to all federal, state and local government web resources and services.